createdAt,value
2023-05-25T00:01:35.367Z,102810.75
2023-05-25T00:04:04.145Z,102810.63
2023-05-25T00:06:33.057Z,102816.22
2023-05-25T00:09:01.105Z,102816.75
2023-05-25T00:11:29.060Z,102820.66
2023-05-25T00:13:58.339Z,102821.44
2023-05-25T00:16:26.385Z,102829.97
2023-05-25T00:18:57.351Z,102835.13
2023-05-25T00:21:25.712Z,102828.81
2023-05-25T00:23:54.057Z,102834.34
2023-05-25T00:26:21.952Z,102839.59
2023-05-25T00:28:49.924Z,102845.31
2023-05-25T00:31:19.338Z,102849.06
2023-05-25T00:33:47.499Z,102839.31
2023-05-25T00:36:15.485Z,102845.41
2023-05-25T00:38:44.567Z,102841.78
2023-05-25T00:41:13.031Z,102842.66
2023-05-25T00:43:40.964Z,102844.81
2023-05-25T00:46:08.990Z,102847.84
2023-05-25T00:48:38.454Z,102839.38
2023-05-25T00:51:06.860Z,102843.25
2023-05-25T00:53:37.169Z,102855.63
2023-05-25T00:56:06.786Z,102852.25
2023-05-25T00:58:35.134Z,102864.03
2023-05-25T01:01:03.179Z,102851.75
2023-05-25T01:03:37.141Z,102865.97
2023-05-25T01:06:08.569Z,102864.88
2023-05-25T01:08:36.557Z,102871.44
2023-05-25T01:11:04.635Z,102881.16
2023-05-25T01:13:32.571Z,102889.78
2023-05-25T01:16:00.531Z,102878.97
2023-05-25T01:18:28.772Z,102880.78
2023-05-25T01:21:13.446Z,102877.03
2023-05-25T01:23:43.875Z,102876.66
2023-05-25T01:26:16.315Z,102878.25
2023-05-25T01:28:50.324Z,102880.69
2023-05-25T01:31:19.175Z,102873.38
2023-05-25T01:33:47.095Z,102877.78
2023-05-25T01:36:16.384Z,102883.84
2023-05-25T01:38:44.281Z,102885.88
2023-05-25T01:41:12.281Z,102889.88
2023-05-25T01:43:40.264Z,102888.44
2023-05-25T01:46:21.015Z,102892.56
2023-05-25T01:48:54.308Z,102896.34
2023-05-25T01:51:27.557Z,102894.63
2023-05-25T01:53:57.340Z,102898.16
2023-05-25T01:56:26.568Z,102898.88
2023-05-25T01:58:54.645Z,102904.19
2023-05-25T02:01:22.894Z,102902.75
2023-05-25T02:03:51.036Z,102899.47
2023-05-25T02:06:19.046Z,102895.81
2023-05-25T02:08:48.380Z,102896.41
2023-05-25T02:11:17.282Z,102922.72
2023-05-25T02:13:46.871Z,102919.22
2023-05-25T02:16:14.896Z,102912.44
2023-05-25T02:18:46.218Z,102902.97
2023-05-25T02:21:14.226Z,102902.75
2023-05-25T02:23:42.166Z,102913.44
2023-05-25T02:26:11.425Z,102915.38
2023-05-25T02:28:39.537Z,102908.56
2023-05-25T02:31:07.480Z,102909.91
2023-05-25T02:33:35.533Z,102903.19
2023-05-25T02:36:03.457Z,102922.34
2023-05-25T02:38:31.467Z,102917.47
2023-05-25T02:40:59.491Z,102903.84
2023-05-25T02:43:28.845Z,102908.78
2023-05-25T02:45:57.042Z,102915.66
2023-05-25T02:48:24.987Z,102916.13
2023-05-25T02:50:52.944Z,102910.97
2023-05-25T02:53:21.037Z,102908.38
2023-05-25T02:55:49.260Z,102915.00
2023-05-25T02:58:20.259Z,102918.94
2023-05-25T03:01:10.361Z,102912.03
2023-05-25T03:03:41.172Z,102905.97
2023-05-25T03:06:09.190Z,102904.91
2023-05-25T03:08:37.157Z,102909.38
2023-05-25T03:11:05.141Z,102900.53
2023-05-25T03:13:33.366Z,102906.72
2023-05-25T03:16:01.494Z,102911.81
2023-05-25T03:18:31.398Z,102909.44
2023-05-25T03:20:59.656Z,102915.81
2023-05-25T03:23:27.627Z,102906.59
2023-05-25T03:25:58.197Z,102901.25
2023-05-25T03:28:26.484Z,102905.84
2023-05-25T03:30:54.780Z,102896.38
2023-05-25T03:33:22.931Z,102910.28
2023-05-25T03:35:52.666Z,102899.44
2023-05-25T03:38:20.791Z,102899.88
2023-05-25T03:40:49.255Z,102897.56
2023-05-25T03:43:17.446Z,102897.47
2023-05-25T03:45:48.061Z,102905.47
2023-05-25T03:48:17.203Z,102906.41
2023-05-25T03:50:45.166Z,102902.44
2023-05-25T03:53:14.463Z,102911.09
2023-05-25T03:55:43.207Z,102913.50
2023-05-25T03:58:11.360Z,102916.06
2023-05-25T04:00:39.325Z,102906.75
2023-05-25T04:03:11.045Z,102903.34
2023-05-25T04:05:39.636Z,102899.88
2023-05-25T04:08:08.642Z,102895.81
2023-05-25T04:10:37.995Z,102903.09
2023-05-25T04:13:05.983Z,102906.94
2023-05-25T04:15:35.632Z,102894.56
2023-05-25T04:18:08.736Z,102905.88
2023-05-25T04:20:36.968Z,102907.44
2023-05-25T04:23:06.139Z,102896.66
2023-05-25T04:25:35.063Z,102904.56
2023-05-25T04:28:04.602Z,102895.81
2023-05-25T04:30:45.881Z,102893.38
2023-05-25T04:33:29.992Z,102891.69
2023-05-25T04:36:14.297Z,102898.31
2023-05-25T04:38:43.030Z,102902.25
2023-05-25T04:41:11.346Z,102906.31
2023-05-25T04:43:52.665Z,102905.91
2023-05-25T04:46:29.854Z,102909.44
2023-05-25T04:48:57.973Z,102915.97
2023-05-25T04:51:26.725Z,102915.22
2023-05-25T04:53:54.699Z,102923.66
2023-05-25T04:56:25.812Z,102922.13
2023-05-25T04:58:55.331Z,102922.78
2023-05-25T05:01:24.080Z,102916.41
2023-05-25T05:03:52.302Z,102916.09
2023-05-25T05:06:20.507Z,102922.78
2023-05-25T05:08:48.482Z,102922.44
2023-05-25T05:11:16.508Z,102923.81
2023-05-25T05:13:45.320Z,102923.84
2023-05-25T05:16:14.695Z,102924.28
2023-05-25T05:18:43.322Z,102929.16
2023-05-25T05:21:11.562Z,102933.38
2023-05-25T05:23:40.207Z,102924.56
2023-05-25T05:26:11.388Z,102927.00
2023-05-25T05:28:39.367Z,102922.81
2023-05-25T05:31:07.521Z,102928.34
2023-05-25T05:33:37.501Z,102927.88
2023-05-25T05:36:06.188Z,102930.84
2023-05-25T05:38:34.335Z,102927.94
2023-05-25T05:41:02.850Z,102934.50
2023-05-25T05:43:31.016Z,102939.91
2023-05-25T05:45:59.104Z,102918.84
2023-05-25T05:48:27.189Z,102943.66
2023-05-25T05:50:56.756Z,102943.97
2023-05-25T05:53:25.630Z,102940.34
2023-05-25T05:55:59.036Z,102946.56
2023-05-25T05:58:27.741Z,102958.84
2023-05-25T06:00:56.384Z,102944.69
2023-05-25T06:03:24.512Z,102949.06
2023-05-25T06:05:52.698Z,102958.91
2023-05-25T06:08:22.133Z,102957.19
2023-05-25T06:10:50.084Z,102964.63
2023-05-25T06:13:18.081Z,102954.53
2023-05-25T06:15:46.338Z,102963.69
2023-05-25T06:18:19.278Z,102961.13
2023-05-25T06:20:47.485Z,102957.72
2023-05-25T06:23:15.869Z,102958.91
2023-05-25T06:25:45.980Z,102964.16
2023-05-25T06:28:15.063Z,102965.59
2023-05-25T06:30:43.486Z,102957.56
2023-05-25T06:33:12.652Z,102959.63
2023-05-25T06:35:40.683Z,102960.81
2023-05-25T06:38:08.658Z,102965.19
2023-05-25T06:40:36.609Z,102960.34
2023-05-25T06:43:06.208Z,102973.00
2023-05-25T06:45:52.760Z,102967.44
2023-05-25T06:48:21.067Z,102967.38
2023-05-25T06:50:49.103Z,102968.06
2023-05-25T06:53:18.264Z,102968.97
2023-05-25T06:55:46.389Z,102977.63
2023-05-25T06:58:16.202Z,102967.22
2023-05-25T07:00:46.039Z,102976.41
2023-05-25T07:03:14.797Z,102987.13
2023-05-25T07:05:43.156Z,102983.19
2023-05-25T07:08:11.909Z,102987.88
2023-05-25T07:10:40.025Z,102988.19
2023-05-25T07:13:08.096Z,102993.03
2023-05-25T07:15:37.370Z,102995.72
2023-05-25T07:18:05.547Z,102981.59
2023-05-25T07:20:34.310Z,102989.50
2023-05-25T07:23:02.448Z,102995.72
2023-05-25T07:25:30.876Z,102986.97
2023-05-25T07:27:59.423Z,102990.63
2023-05-25T07:30:27.485Z,102994.03
2023-05-25T07:33:04.615Z,103002.56
2023-05-25T07:35:35.260Z,102991.53
2023-05-25T07:38:04.530Z,102995.25
2023-05-25T07:40:32.521Z,103000.66
2023-05-25T07:43:01.522Z,102992.25
2023-05-25T07:45:32.090Z,103000.34
2023-05-25T07:48:01.470Z,103008.47
2023-05-25T07:50:31.600Z,103009.06
2023-05-25T07:53:00.889Z,103008.22
2023-05-25T07:55:28.831Z,103008.78
2023-05-25T07:57:56.995Z,103009.34
2023-05-25T08:00:25.255Z,103012.44
2023-05-25T08:02:53.833Z,103019.69
2023-05-25T08:05:23.238Z,103020.25
2023-05-25T08:07:51.333Z,103019.84
2023-05-25T08:10:19.441Z,103026.75
2023-05-25T08:12:49.543Z,103013.06
2023-05-25T08:15:18.129Z,103023.09
2023-05-25T08:17:46.110Z,103015.88
2023-05-25T08:20:15.338Z,103022.81
2023-05-25T08:22:45.551Z,103015.28
2023-05-25T08:25:13.558Z,103018.81
2023-05-25T08:27:41.509Z,103020.25
2023-05-25T08:30:10.283Z,103025.16
2023-05-25T08:32:38.199Z,103023.13
2023-05-25T08:35:06.986Z,103032.66
2023-05-25T08:37:35.687Z,103037.03
2023-05-25T08:40:06.602Z,103037.56
2023-05-25T08:42:34.622Z,103031.56
2023-05-25T08:45:02.693Z,103029.06
2023-05-25T08:47:34.651Z,103028.94
2023-05-25T08:50:05.134Z,103025.03
2023-05-25T08:52:34.098Z,103029.31
2023-05-25T08:55:04.937Z,103027.59
2023-05-25T08:57:41.911Z,103020.66
2023-05-25T09:00:11.440Z,103014.34
2023-05-25T09:02:40.985Z,103018.25
2023-05-25T09:05:09.631Z,103009.66
2023-05-25T09:07:37.728Z,103024.59
2023-05-25T09:10:07.975Z,103021.66
2023-05-25T09:12:36.803Z,103026.59
2023-05-25T09:15:05.670Z,103028.88
2023-05-25T09:17:35.914Z,103038.69
2023-05-25T09:20:06.018Z,103027.38
2023-05-25T09:22:34.129Z,103033.78
2023-05-25T09:25:02.082Z,103022.50
2023-05-25T09:27:31.429Z,103020.19
2023-05-25T09:30:01.211Z,103025.94
2023-05-25T09:32:29.267Z,103025.63
2023-05-25T09:34:57.880Z,103016.41
2023-05-25T09:37:25.983Z,103021.50
2023-05-25T09:39:54.309Z,103024.41
2023-05-25T09:42:22.332Z,103022.56
2023-05-25T09:44:51.841Z,103023.63
2023-05-25T09:47:19.796Z,103018.94
2023-05-25T09:49:49.955Z,103023.88
2023-05-25T09:52:17.905Z,103018.47
2023-05-25T09:54:46.771Z,103023.53
2023-05-25T09:57:14.972Z,103023.56
2023-05-25T09:59:43.096Z,103029.00
2023-05-25T10:02:12.509Z,103017.50
2023-05-25T10:04:41.373Z,103020.88
2023-05-25T10:07:09.622Z,103026.63
2023-05-25T10:09:40.627Z,103018.19
2023-05-25T10:12:08.889Z,103019.88
2023-05-25T10:14:38.485Z,103011.75
2023-05-25T10:17:07.739Z,103012.41
2023-05-25T10:19:41.958Z,103014.47
2023-05-25T10:22:15.213Z,103009.84
2023-05-25T10:24:44.942Z,103022.47
2023-05-25T10:27:27.027Z,103016.00
2023-05-25T10:29:56.073Z,103020.03
2023-05-25T10:32:24.108Z,103013.38
2023-05-25T10:34:53.844Z,103010.34
2023-05-25T10:37:23.883Z,103017.13
2023-05-25T10:39:51.910Z,103016.47
2023-05-25T10:42:19.960Z,103006.69
2023-05-25T10:44:47.985Z,103024.94
2023-05-25T10:47:16.337Z,103028.66
2023-05-25T10:49:55.710Z,103011.50
2023-05-25T10:52:23.996Z,103014.97
2023-05-25T10:54:51.971Z,103016.13
2023-05-25T10:57:20.845Z,103017.00
2023-05-25T10:59:52.313Z,103011.84
2023-05-25T11:02:23.472Z,103018.66
2023-05-25T11:04:51.855Z,103008.53
2023-05-25T11:07:21.651Z,103012.81
2023-05-25T11:09:59.477Z,103016.28
2023-05-25T11:12:27.665Z,102998.13
2023-05-25T11:15:12.942Z,103012.06
2023-05-25T11:17:48.154Z,103006.66
2023-05-25T11:20:22.967Z,102995.53
2023-05-25T11:22:53.942Z,103000.84
2023-05-25T11:25:37.523Z,103009.09
2023-05-25T11:28:06.032Z,102993.19
2023-05-25T11:30:34.017Z,102994.38
2023-05-25T11:33:03.856Z,102990.28
2023-05-25T11:35:38.073Z,102997.53
2023-05-25T11:38:08.433Z,102992.47
2023-05-25T11:40:39.245Z,102988.97
2023-05-25T11:43:08.811Z,102989.66
2023-05-25T11:45:38.183Z,102995.66
2023-05-25T11:48:06.638Z,102969.28
2023-05-25T11:50:34.738Z,102979.91
2023-05-25T11:53:06.071Z,102986.09
2023-05-25T11:55:35.558Z,102981.47
2023-05-25T11:58:03.523Z,102980.72
2023-05-25T12:00:31.689Z,102981.06
2023-05-25T12:02:59.940Z,102970.84
2023-05-25T12:05:28.362Z,102980.75
2023-05-25T12:07:56.754Z,102977.25
2023-05-25T12:10:24.681Z,102982.13
2023-05-25T12:12:58.252Z,102979.13
2023-05-25T12:15:27.115Z,102980.03
2023-05-25T12:17:55.108Z,102981.19
2023-05-25T12:20:23.289Z,102981.81
2023-05-25T12:22:51.306Z,102985.44
2023-05-25T12:25:20.887Z,102989.84
2023-05-25T12:27:49.036Z,102986.56
2023-05-25T12:30:18.453Z,102987.06
2023-05-25T12:32:55.782Z,102991.09
2023-05-25T12:35:23.823Z,102991.06
2023-05-25T12:37:51.785Z,102985.34
2023-05-25T12:40:20.836Z,102994.66
2023-05-25T12:42:57.129Z,102990.13
2023-05-25T12:45:26.809Z,102992.44
2023-05-25T12:47:54.882Z,102992.09
2023-05-25T12:50:22.965Z,102990.16
2023-05-25T12:52:50.997Z,102979.69
2023-05-25T12:55:27.216Z,102987.47
2023-05-25T12:57:55.705Z,102977.78
2023-05-25T13:00:23.897Z,102975.06
2023-05-25T13:02:53.576Z,102974.88
2023-05-25T13:05:22.754Z,102986.41
2023-05-25T13:07:50.871Z,102972.13
2023-05-25T13:10:19.185Z,102979.28
2023-05-25T13:12:47.488Z,102980.53
2023-05-25T13:15:16.040Z,102977.59
2023-05-25T13:17:44.471Z,102977.19
2023-05-25T13:20:15.227Z,102977.59
2023-05-25T13:22:44.952Z,102965.00
2023-05-25T13:25:13.557Z,102958.28
2023-05-25T13:27:44.481Z,102974.25
2023-05-25T13:30:13.233Z,102966.84
2023-05-25T13:32:43.089Z,102961.06
2023-05-25T13:35:12.922Z,102975.16
2023-05-25T13:37:42.289Z,102962.41
2023-05-25T13:40:10.867Z,102968.81
2023-05-25T13:42:38.989Z,102964.94
2023-05-25T13:45:08.021Z,102957.31
2023-05-25T13:47:36.084Z,102954.81
2023-05-25T13:50:04.606Z,102967.38
2023-05-25T13:52:33.092Z,102972.34
2023-05-25T13:55:02.511Z,102966.91
2023-05-25T13:57:30.500Z,102970.91
2023-05-25T13:59:58.404Z,102977.59
2023-05-25T14:02:26.428Z,102983.09
2023-05-25T14:04:55.135Z,102978.50
2023-05-25T14:07:23.891Z,102984.25
2023-05-25T14:09:51.956Z,102982.44
2023-05-25T14:12:21.276Z,102983.66
2023-05-25T14:14:49.339Z,102982.94
2023-05-25T14:17:17.236Z,102979.28
2023-05-25T14:19:45.497Z,102981.41
2023-05-25T14:22:14.565Z,102978.97
2023-05-25T14:24:42.909Z,102971.03
2023-05-25T14:27:13.826Z,102978.06
2023-05-25T14:29:43.191Z,102974.72
2023-05-25T14:32:11.227Z,102972.56
2023-05-25T14:34:39.206Z,102978.69
2023-05-25T14:37:07.444Z,102976.91
2023-05-25T14:39:36.329Z,102974.50
2023-05-25T14:42:04.531Z,102974.66
2023-05-25T14:44:32.704Z,102977.41
2023-05-25T14:47:02.055Z,102975.84
2023-05-25T14:49:30.054Z,102983.91
2023-05-25T14:51:58.019Z,102981.78
2023-05-25T14:54:26.006Z,102970.13
2023-05-25T14:56:53.926Z,102976.16
2023-05-25T14:59:21.915Z,102969.72
2023-05-25T15:01:50.080Z,102969.19
2023-05-25T15:04:19.916Z,102973.44
2023-05-25T15:06:48.258Z,102975.50
2023-05-25T15:09:17.332Z,102977.22
2023-05-25T15:11:45.496Z,102971.72
2023-05-25T15:14:13.491Z,102976.03
2023-05-25T15:16:41.983Z,102979.13
2023-05-25T15:19:12.645Z,102979.97
2023-05-25T15:21:45.111Z,102976.66
2023-05-25T15:24:16.603Z,102975.13
2023-05-25T15:26:44.697Z,102971.41
2023-05-25T15:29:12.998Z,102977.72
2023-05-25T15:31:41.452Z,102973.94
2023-05-25T15:34:13.137Z,102971.41
2023-05-25T15:36:41.312Z,102973.38
2023-05-25T15:39:11.577Z,102983.75
2023-05-25T15:41:42.405Z,102977.81
2023-05-25T15:44:12.816Z,102982.75
2023-05-25T15:46:41.157Z,102969.66
2023-05-25T15:49:12.144Z,102972.63
2023-05-25T15:51:41.689Z,102976.16
2023-05-25T15:54:14.371Z,102985.53
2023-05-25T15:56:43.050Z,102974.22
2023-05-25T15:59:12.646Z,102985.97
2023-05-25T16:01:40.893Z,102984.28
2023-05-25T16:04:09.460Z,102979.88
2023-05-25T16:06:38.494Z,102974.84
2023-05-25T16:09:06.748Z,102977.97
2023-05-25T16:11:36.266Z,102972.44
2023-05-25T16:14:04.191Z,102971.53
2023-05-25T16:16:33.690Z,102969.59
2023-05-25T16:19:01.728Z,102973.09
2023-05-25T16:21:29.732Z,102971.78
2023-05-25T16:23:57.714Z,102977.56
2023-05-25T16:26:27.174Z,102973.16
2023-05-25T16:28:56.845Z,102979.34
2023-05-25T16:31:24.858Z,102972.75
2023-05-25T16:33:52.815Z,102973.97
2023-05-25T16:36:21.293Z,102978.72
2023-05-25T16:38:49.220Z,102975.72
2023-05-25T16:41:19.387Z,102974.88
2023-05-25T16:43:47.403Z,102970.22
2023-05-25T16:46:16.851Z,102972.53
2023-05-25T16:48:44.936Z,102970.22
2023-05-25T16:51:15.224Z,102961.69
2023-05-25T16:53:43.601Z,102964.44
2023-05-25T16:56:11.840Z,102962.41
2023-05-25T16:58:39.945Z,102969.66
2023-05-25T17:01:07.954Z,102957.16
2023-05-25T17:03:37.443Z,102945.91
2023-05-25T17:06:05.824Z,102954.31
2023-05-25T17:08:33.886Z,102965.69
2023-05-25T17:11:01.816Z,102960.63
2023-05-25T17:13:29.913Z,102966.72
2023-05-25T17:15:58.183Z,102963.13
2023-05-25T17:18:26.994Z,102972.00
2023-05-25T17:20:57.809Z,102966.56
2023-05-25T17:23:25.814Z,102961.59
2023-05-25T17:25:53.825Z,102956.56
2023-05-25T17:28:21.739Z,102965.41
2023-05-25T17:30:49.698Z,102956.19
2023-05-25T17:33:17.764Z,102955.72
2023-05-25T17:35:46.425Z,102959.66
2023-05-25T17:38:15.963Z,102955.94
2023-05-25T17:40:44.116Z,102950.41
2023-05-25T17:43:12.135Z,102951.19
2023-05-25T17:45:40.235Z,102954.00
2023-05-25T17:48:08.311Z,102947.03
2023-05-25T17:50:36.508Z,102943.38
2023-05-25T17:53:04.655Z,102947.88
2023-05-25T17:55:33.978Z,102946.81
2023-05-25T17:58:01.998Z,102948.56
2023-05-25T18:00:30.838Z,102943.75
2023-05-25T18:02:59.042Z,102956.22
2023-05-25T18:05:27.097Z,102951.09
2023-05-25T18:07:55.122Z,102948.78
2023-05-25T18:10:23.053Z,102955.50
2023-05-25T18:12:52.910Z,102950.84
2023-05-25T18:15:21.755Z,102948.63
2023-05-25T18:17:51.118Z,102941.41
2023-05-25T18:20:19.242Z,102949.47
2023-05-25T18:22:47.337Z,102940.84
2023-05-25T18:25:15.369Z,102955.22
2023-05-25T18:27:43.335Z,102956.19
2023-05-25T18:30:13.830Z,102955.88
2023-05-25T18:32:42.010Z,102955.66
2023-05-25T18:35:10.315Z,102949.25
2023-05-25T18:37:38.446Z,102952.22
2023-05-25T18:40:07.554Z,102944.66
2023-05-25T18:42:35.841Z,102951.00
2023-05-25T18:45:04.021Z,102950.09
2023-05-25T18:47:33.594Z,102951.56
2023-05-25T18:50:01.787Z,102951.75
2023-05-25T18:52:29.798Z,102949.41
2023-05-25T18:54:57.721Z,102952.50
2023-05-25T18:57:25.690Z,102950.16
2023-05-25T18:59:53.625Z,102945.78
2023-05-25T19:02:21.677Z,102945.47
2023-05-25T19:04:51.085Z,102936.16
2023-05-25T19:07:19.084Z,102942.94
2023-05-25T19:09:48.164Z,102929.28
2023-05-25T19:12:16.556Z,102925.19
2023-05-25T19:14:44.577Z,102926.25
2023-05-25T19:17:12.550Z,102931.94
2023-05-25T19:19:40.465Z,102933.97
2023-05-25T19:22:10.300Z,102936.63
2023-05-25T19:24:41.352Z,102937.97
2023-05-25T19:27:10.809Z,102944.03
2023-05-25T19:29:38.792Z,102939.28
2023-05-25T19:32:07.067Z,102942.00
2023-05-25T19:34:36.892Z,102939.63
2023-05-25T19:39:39.794Z,102944.66
2023-05-25T19:42:07.903Z,102939.75
2023-05-25T19:44:35.931Z,102936.69
2023-05-25T19:47:03.875Z,102945.59
2023-05-25T19:49:31.857Z,102945.59
2023-05-25T19:51:59.815Z,102944.59
2023-05-25T19:54:28.013Z,102948.63
2023-05-25T19:56:57.327Z,102954.13
2023-05-25T19:59:27.951Z,102953.59
2023-05-25T20:01:56.721Z,102966.72
2023-05-25T20:04:25.148Z,102965.50
2023-05-25T20:06:53.756Z,102963.28
2023-05-25T20:09:29.994Z,102970.38
2023-05-25T20:11:59.766Z,102973.44
2023-05-25T20:14:27.715Z,102968.75
2023-05-25T20:16:55.911Z,102975.81
2023-05-25T20:19:24.024Z,102977.53
2023-05-25T20:21:52.483Z,102970.63
2023-05-25T20:24:22.034Z,102977.13
2023-05-25T20:26:50.229Z,102975.31
2023-05-25T20:29:19.545Z,102975.97
2023-05-25T20:31:47.597Z,102989.81
2023-05-25T20:34:15.686Z,102987.91
2023-05-25T20:36:43.958Z,102992.75
2023-05-25T20:39:11.892Z,102992.38
2023-05-25T20:41:39.876Z,102993.72
2023-05-25T20:44:08.799Z,102996.56
2023-05-25T20:46:38.405Z,103000.28
2023-05-25T20:49:06.580Z,103003.47
2023-05-25T20:51:34.499Z,102991.59
2023-05-25T20:54:02.568Z,103000.69
2023-05-25T20:56:30.487Z,103006.41
2023-05-25T20:58:58.521Z,103012.97
2023-05-25T21:01:26.510Z,103012.97
2023-05-25T21:03:56.356Z,103022.53
2023-05-25T21:06:24.503Z,103012.53
2023-05-25T21:08:54.070Z,103008.94
2023-05-25T21:11:22.122Z,103005.84
2023-05-25T21:13:50.053Z,103018.66
2023-05-25T21:16:18.186Z,103014.25
2023-05-25T21:18:46.489Z,103018.25
2023-05-25T21:21:16.101Z,103005.97
2023-05-25T21:23:44.135Z,103017.75
2023-05-25T21:26:14.303Z,103012.19
2023-05-25T21:28:42.285Z,103014.91
2023-05-25T21:31:11.507Z,103010.50
2023-05-25T21:33:40.203Z,103012.66
2023-05-25T21:36:08.924Z,103013.13
2023-05-25T21:38:38.291Z,103013.88
2023-05-25T21:41:07.046Z,103023.41
2023-05-25T21:43:34.972Z,103017.94
2023-05-25T21:46:03.422Z,103021.41
2023-05-25T21:48:31.340Z,103013.38
2023-05-25T21:50:59.278Z,103019.09
2023-05-25T21:53:27.200Z,103019.91
2023-05-25T21:55:56.550Z,103017.63
2023-05-25T21:58:24.519Z,103019.56
2023-05-25T22:00:52.664Z,103015.53
2023-05-25T22:03:20.672Z,103017.25
2023-05-25T22:05:48.672Z,103021.78
2023-05-25T22:08:16.564Z,103020.41
2023-05-25T22:10:44.708Z,103021.56
2023-05-25T22:13:14.074Z,103025.56
2023-05-25T22:15:42.036Z,103025.84
2023-05-25T22:18:09.978Z,103025.28
2023-05-25T22:20:41.426Z,103026.72
2023-05-25T22:23:09.659Z,103021.25
2023-05-25T22:25:37.606Z,103028.41
2023-05-25T22:28:06.004Z,103026.78
2023-05-25T22:30:35.324Z,103026.19
2023-05-25T22:33:03.382Z,103024.16
2023-05-25T22:35:31.397Z,103031.25
2023-05-25T22:37:59.326Z,103025.88
2023-05-25T22:40:28.590Z,103024.16
2023-05-25T22:42:56.990Z,103032.09
2023-05-25T22:45:24.889Z,103025.59
2023-05-25T22:47:54.336Z,103024.59
2023-05-25T22:50:22.413Z,103035.75
2023-05-25T22:52:50.381Z,103036.75
2023-05-25T22:55:18.418Z,103030.88
2023-05-25T22:57:46.393Z,103029.09
2023-05-25T23:00:14.861Z,103036.47
2023-05-25T23:02:43.139Z,103025.41
2023-05-25T23:05:12.556Z,103031.88
2023-05-25T23:07:41.385Z,103036.53
2023-05-25T23:10:10.121Z,103039.44
2023-05-25T23:12:38.014Z,103042.66
2023-05-25T23:15:08.105Z,103044.22
2023-05-25T23:17:36.187Z,103047.63
2023-05-25T23:20:07.467Z,103047.28
2023-05-25T23:22:36.889Z,103048.00
2023-05-25T23:25:05.114Z,103050.38
2023-05-25T23:27:33.053Z,103047.00
2023-05-25T23:30:02.140Z,103046.13
2023-05-25T23:32:30.407Z,103048.00
2023-05-25T23:34:58.402Z,103049.69
2023-05-25T23:37:26.859Z,103051.53
2023-05-25T23:39:56.143Z,103049.63
2023-05-25T23:42:24.150Z,103048.53
2023-05-25T23:44:52.059Z,103047.69
2023-05-25T23:47:20.030Z,103045.69
2023-05-25T23:49:47.971Z,103049.94
2023-05-25T23:52:15.913Z,103047.91
2023-05-25T23:54:43.833Z,103047.63
2023-05-25T23:57:13.320Z,103049.31
2023-05-25T23:59:42.008Z,103051.84
